SHMÚ vydal meteorologické výstrahy na Vietor na horáchDážď Zobraziť výstrahy

METAR

Letisková meteorologická správa METAR

Meteorologické informácie z ďalších profesionálnych meteorologických staníc SHMÚ zobrazené v tvare zodpovedajúcom pravidlám kódovania správ METAR sú uvedené v položke „METSYN

Informácie o správe METAR

19.09.2017 - 20:00 UTC

METAR LZIB 192000Z 23004KT 7000 RA FEW010 BKN027 OVC062 12/11 Q1012=
METAR LZKZ 192000Z 35006KT CAVOK 14/10 Q1011=
METAR LZPP 192000Z 34007KT 9999 -RA SCT020 OVC055 12/11 Q1012=
METAR LZSL 192000Z 06004KT 030V110 9999 -RA OVC040 12/10 Q1011=
METAR LZTT 192000Z 13004KT 9999 BKN016 OVC030 10/09 Q1012=
METAR LZZI 192000Z 12003KT 9999 FEW008 SCT060 OVC080 11/10 Q1012=

19.09.2017 - 19:30 UTC

METAR LZIB 191930Z 32004KT 9999 -RA FEW010 SCT028 BKN040 12/11
Q1012=
METAR LZKZ 191930Z 36011KT CAVOK 14/10 Q1011=
METAR LZPP 191930Z 34007KT 9999 -RA SCT020 OVC055 12/11 Q1012=
METAR LZSL 191930Z 05006KT 6000 -RA OVC038 12/10 Q1011=
METAR LZTT 191930Z 11003KT 060V200 9999 BKN014 OVC030 10/09 Q1012=
METAR LZZI 191930Z 11003KT 9999 FEW008 BKN060 OVC080 11/10 Q1012=

19.09.2017 - 20:00 UTC

METAR LZMC 192000Z 35006KT 2000 -RA FEW003 BKN004
OVC006 11/10 Q1013=
METAR LZPW 192000Z 02008KT 9999 FEW012 SCT020 OVC120
13/10 Q1011=

skok na menu ↑


skok na začiatok stránky ↑